sensor_id;sensor_type;location;lat;lon;timestamp;temperature;humidity
21039;DHT22;10678;51.002;4.786;2022-07-22T00:01:33;16.80;99.90
21039;DHT22;10678;51.002;4.786;2022-07-22T00:03:59;16.70;99.90
21039;DHT22;10678;51.002;4.786;2022-07-22T00:06:25;16.70;99.90
21039;DHT22;10678;51.002;4.786;2022-07-22T00:08:51;16.80;99.90
21039;DHT22;10678;51.002;4.786;2022-07-22T00:11:16;16.80;99.90
21039;DHT22;10678;51.002;4.786;2022-07-22T00:13:42;16.70;99.90
21039;DHT22;10678;51.002;4.786;2022-07-22T00:16:07;16.70;99.90
21039;DHT22;10678;51.002;4.786;2022-07-22T00:18:33;16.70;99.90
21039;DHT22;10678;51.002;4.786;2022-07-22T00:20:59;16.70;99.90
21039;DHT22;10678;51.002;4.786;2022-07-22T00:23:24;16.70;99.90
21039;DHT22;10678;51.002;4.786;2022-07-22T00:25:50;16.70;99.90
21039;DHT22;10678;51.002;4.786;2022-07-22T00:28:15;16.70;99.90
21039;DHT22;10678;51.002;4.786;2022-07-22T00:30:41;16.70;99.90
21039;DHT22;10678;51.002;4.786;2022-07-22T00:33:07;16.50;99.90
21039;DHT22;10678;51.002;4.786;2022-07-22T00:35:32;16.40;99.90
21039;DHT22;10678;51.002;4.786;2022-07-22T00:37:58;16.50;99.90
21039;DHT22;10678;51.002;4.786;2022-07-22T00:40:24;16.50;99.90
21039;DHT22;10678;51.002;4.786;2022-07-22T00:42:49;16.50;99.90
21039;DHT22;10678;51.002;4.786;2022-07-22T00:45:15;16.50;99.90
21039;DHT22;10678;51.002;4.786;2022-07-22T00:47:41;16.60;99.90
21039;DHT22;10678;51.002;4.786;2022-07-22T00:50:07;16.50;99.90
21039;DHT22;10678;51.002;4.786;2022-07-22T00:52:34;16.50;99.90
21039;DHT22;10678;51.002;4.786;2022-07-22T00:55:00;16.50;99.90
21039;DHT22;10678;51.002;4.786;2022-07-22T00:57:27;16.50;99.90
21039;DHT22;10678;51.002;4.786;2022-07-22T00:59:53;16.30;99.90
21039;DHT22;10678;51.002;4.786;2022-07-22T01:02:19;16.40;99.90
21039;DHT22;10678;51.002;4.786;2022-07-22T01:04:44;16.40;99.90
21039;DHT22;10678;51.002;4.786;2022-07-22T01:07:10;16.30;99.90
21039;DHT22;10678;51.002;4.786;2022-07-22T01:09:36;16.40;99.90
21039;DHT22;10678;51.002;4.786;2022-07-22T01:12:02;16.40;99.90
21039;DHT22;10678;51.002;4.786;2022-07-22T01:14:28;16.30;99.90
21039;DHT22;10678;51.002;4.786;2022-07-22T01:16:54;16.20;99.90
21039;DHT22;10678;51.002;4.786;2022-07-22T01:19:20;16.30;99.90
21039;DHT22;10678;51.002;4.786;2022-07-22T01:21:46;16.20;99.90
21039;DHT22;10678;51.002;4.786;2022-07-22T01:24:11;16.30;99.90
21039;DHT22;10678;51.002;4.786;2022-07-22T01:26:37;16.10;99.90
21039;DHT22;10678;51.002;4.786;2022-07-22T01:29:03;16.30;99.90
21039;DHT22;10678;51.002;4.786;2022-07-22T01:31:29;16.30;99.90
21039;DHT22;10678;51.002;4.786;2022-07-22T01:33:55;16.20;99.90
21039;DHT22;10678;51.002;4.786;2022-07-22T01:36:21;16.20;99.90
21039;DHT22;10678;51.002;4.786;2022-07-22T01:38:47;16.10;99.90
21039;DHT22;10678;51.002;4.786;2022-07-22T01:41:12;16.10;99.90
21039;DHT22;10678;51.002;4.786;2022-07-22T01:43:38;16.10;99.90
21039;DHT22;10678;51.002;4.786;2022-07-22T01:46:04;16.10;99.90
21039;DHT22;10678;51.002;4.786;2022-07-22T01:48:30;16.10;99.90
21039;DHT22;10678;51.002;4.786;2022-07-22T01:50:55;16.10;99.90
21039;DHT22;10678;51.002;4.786;2022-07-22T01:53:21;16.00;99.90
21039;DHT22;10678;51.002;4.786;2022-07-22T01:55:47;15.90;99.90
21039;DHT22;10678;51.002;4.786;2022-07-22T01:58:13;15.90;99.90
21039;DHT22;10678;51.002;4.786;2022-07-22T02:00:39;16.00;99.90
21039;DHT22;10678;51.002;4.786;2022-07-22T02:03:04;16.00;99.90
21039;DHT22;10678;51.002;4.786;2022-07-22T02:05:30;16.00;99.90
21039;DHT22;10678;51.002;4.786;2022-07-22T02:08:00;15.90;99.90
21039;DHT22;10678;51.002;4.786;2022-07-22T02:10:27;15.90;99.90
21039;DHT22;10678;51.002;4.786;2022-07-22T02:12:52;15.80;99.90
21039;DHT22;10678;51.002;4.786;2022-07-22T02:15:18;15.80;99.90
21039;DHT22;10678;51.002;4.786;2022-07-22T02:17:43;15.80;99.90
21039;DHT22;10678;51.002;4.786;2022-07-22T02:20:09;15.80;99.90
21039;DHT22;10678;51.002;4.786;2022-07-22T02:22:35;15.80;99.90
21039;DHT22;10678;51.002;4.786;2022-07-22T02:25:01;15.70;99.90
21039;DHT22;10678;51.002;4.786;2022-07-22T02:27:28;15.70;99.90
21039;DHT22;10678;51.002;4.786;2022-07-22T02:29:53;15.80;99.90
21039;DHT22;10678;51.002;4.786;2022-07-22T02:32:19;15.70;99.90
21039;DHT22;10678;51.002;4.786;2022-07-22T02:34:45;15.70;99.90
21039;DHT22;10678;51.002;4.786;2022-07-22T02:37:10;15.70;99.90
21039;DHT22;10678;51.002;4.786;2022-07-22T02:39:36;15.60;99.90
21039;DHT22;10678;51.002;4.786;2022-07-22T02:42:02;15.60;99.90
21039;DHT22;10678;51.002;4.786;2022-07-22T02:44:27;15.60;99.90
21039;DHT22;10678;51.002;4.786;2022-07-22T02:46:53;15.40;99.90
21039;DHT22;10678;51.002;4.786;2022-07-22T02:49:19;15.50;99.90
21039;DHT22;10678;51.002;4.786;2022-07-22T02:51:44;15.60;99.90
21039;DHT22;10678;51.002;4.786;2022-07-22T02:54:10;15.60;99.90
21039;DHT22;10678;51.002;4.786;2022-07-22T02:56:35;15.50;99.90
21039;DHT22;10678;51.002;4.786;2022-07-22T02:59:02;15.60;99.90
21039;DHT22;10678;51.002;4.786;2022-07-22T03:01:27;15.50;99.90
21039;DHT22;10678;51.002;4.786;2022-07-22T03:03:53;15.40;99.90
21039;DHT22;10678;51.002;4.786;2022-07-22T03:06:19;15.40;99.90
21039;DHT22;10678;51.002;4.786;2022-07-22T03:08:46;15.40;99.90
21039;DHT22;10678;51.002;4.786;2022-07-22T03:11:12;15.40;99.90
21039;DHT22;10678;51.002;4.786;2022-07-22T03:13:37;15.40;99.90
21039;DHT22;10678;51.002;4.786;2022-07-22T03:16:03;15.40;99.90
21039;DHT22;10678;51.002;4.786;2022-07-22T03:18:29;15.50;99.90
21039;DHT22;10678;51.002;4.786;2022-07-22T03:20:54;15.40;99.90
21039;DHT22;10678;51.002;4.786;2022-07-22T03:23:20;15.40;99.90
21039;DHT22;10678;51.002;4.786;2022-07-22T03:25:46;15.40;99.90
21039;DHT22;10678;51.002;4.786;2022-07-22T03:28:11;15.40;99.90
21039;DHT22;10678;51.002;4.786;2022-07-22T03:30:37;15.30;99.90
21039;DHT22;10678;51.002;4.786;2022-07-22T03:33:02;15.20;99.90
21039;DHT22;10678;51.002;4.786;2022-07-22T03:35:28;15.30;99.90
21039;DHT22;10678;51.002;4.786;2022-07-22T03:37:54;15.20;99.90
21039;DHT22;10678;51.002;4.786;2022-07-22T03:40:19;15.30;99.90
21039;DHT22;10678;51.002;4.786;2022-07-22T03:42:45;15.20;99.90
21039;DHT22;10678;51.002;4.786;2022-07-22T03:45:10;15.30;99.90
21039;DHT22;10678;51.002;4.786;2022-07-22T03:47:36;15.20;99.90
21039;DHT22;10678;51.002;4.786;2022-07-22T03:50:02;15.10;99.90
21039;DHT22;10678;51.002;4.786;2022-07-22T03:52:29;15.20;99.90
21039;DHT22;10678;51.002;4.786;2022-07-22T03:54:54;15.20;99.90
21039;DHT22;10678;51.002;4.786;2022-07-22T03:57:20;15.20;99.90
21039;DHT22;10678;51.002;4.786;2022-07-22T03:59:47;15.20;99.90
21039;DHT22;10678;51.002;4.786;2022-07-22T04:02:12;15.20;99.90
21039;DHT22;10678;51.002;4.786;2022-07-22T04:04:38;15.20;99.90
21039;DHT22;10678;51.002;4.786;2022-07-22T04:07:04;15.20;99.90
21039;DHT22;10678;51.002;4.786;2022-07-22T04:09:29;15.20;99.90
21039;DHT22;10678;51.002;4.786;2022-07-22T04:11:55;15.20;99.90
21039;DHT22;10678;51.002;4.786;2022-07-22T04:14:21;15.20;99.90
21039;DHT22;10678;51.002;4.786;2022-07-22T04:16:47;15.20;99.90
21039;DHT22;10678;51.002;4.786;2022-07-22T04:19:14;15.00;99.90
21039;DHT22;10678;51.002;4.786;2022-07-22T04:21:39;15.00;99.90
21039;DHT22;10678;51.002;4.786;2022-07-22T04:24:05;15.10;99.90
21039;DHT22;10678;51.002;4.786;2022-07-22T04:26:31;15.20;99.90
21039;DHT22;10678;51.002;4.786;2022-07-22T04:28:57;15.20;99.90
21039;DHT22;10678;51.002;4.786;2022-07-22T04:31:23;15.20;99.90
21039;DHT22;10678;51.002;4.786;2022-07-22T04:33:49;15.30;99.90
21039;DHT22;10678;51.002;4.786;2022-07-22T04:36:14;15.30;99.90
21039;DHT22;10678;51.002;4.786;2022-07-22T04:38:40;15.30;99.90
21039;DHT22;10678;51.002;4.786;2022-07-22T04:41:06;15.40;99.90
21039;DHT22;10678;51.002;4.786;2022-07-22T04:43:32;15.40;99.90
21039;DHT22;10678;51.002;4.786;2022-07-22T04:45:57;15.40;99.90
21039;DHT22;10678;51.002;4.786;2022-07-22T04:48:23;15.30;99.90
21039;DHT22;10678;51.002;4.786;2022-07-22T04:50:49;15.30;99.90
21039;DHT22;10678;51.002;4.786;2022-07-22T04:53:15;15.30;99.90
21039;DHT22;10678;51.002;4.786;2022-07-22T04:55:40;15.20;99.90
21039;DHT22;10678;51.002;4.786;2022-07-22T04:58:06;15.40;99.90
21039;DHT22;10678;51.002;4.786;2022-07-22T05:00:32;15.40;99.90
21039;DHT22;10678;51.002;4.786;2022-07-22T05:02:57;15.60;99.90
21039;DHT22;10678;51.002;4.786;2022-07-22T05:05:23;15.60;99.90
21039;DHT22;10678;51.002;4.786;2022-07-22T05:07:49;15.70;99.90
21039;DHT22;10678;51.002;4.786;2022-07-22T05:10:15;15.70;99.90
21039;DHT22;10678;51.002;4.786;2022-07-22T05:12:41;15.80;99.90
21039;DHT22;10678;51.002;4.786;2022-07-22T05:15:07;15.60;99.90
21039;DHT22;10678;51.002;4.786;2022-07-22T05:17:33;15.60;99.90
21039;DHT22;10678;51.002;4.786;2022-07-22T05:19:58;15.70;99.90
21039;DHT22;10678;51.002;4.786;2022-07-22T05:22:24;15.60;99.90
21039;DHT22;10678;51.002;4.786;2022-07-22T05:24:49;15.70;99.90
21039;DHT22;10678;51.002;4.786;2022-07-22T05:27:15;15.90;99.90
21039;DHT22;10678;51.002;4.786;2022-07-22T05:29:41;15.90;99.90
21039;DHT22;10678;51.002;4.786;2022-07-22T05:32:06;16.00;99.90
21039;DHT22;10678;51.002;4.786;2022-07-22T05:34:32;16.00;99.90
21039;DHT22;10678;51.002;4.786;2022-07-22T05:36:57;16.10;99.90
21039;DHT22;10678;51.002;4.786;2022-07-22T05:39:23;16.30;99.90
21039;DHT22;10678;51.002;4.786;2022-07-22T05:41:49;16.30;99.90
21039;DHT22;10678;51.002;4.786;2022-07-22T05:44:14;16.50;99.90
21039;DHT22;10678;51.002;4.786;2022-07-22T05:46:40;16.60;99.90
21039;DHT22;10678;51.002;4.786;2022-07-22T05:49:06;16.70;99.90
21039;DHT22;10678;51.002;4.786;2022-07-22T05:51:31;16.70;99.90
21039;DHT22;10678;51.002;4.786;2022-07-22T05:53:59;16.80;99.90
21039;DHT22;10678;51.002;4.786;2022-07-22T05:56:25;17.00;99.90
21039;DHT22;10678;51.002;4.786;2022-07-22T05:58:51;17.10;99.90
21039;DHT22;10678;51.002;4.786;2022-07-22T06:01:16;17.30;99.90
21039;DHT22;10678;51.002;4.786;2022-07-22T06:03:42;17.40;99.90
21039;DHT22;10678;51.002;4.786;2022-07-22T06:06:07;17.70;99.90
21039;DHT22;10678;51.002;4.786;2022-07-22T06:08:34;18.00;99.90
21039;DHT22;10678;51.002;4.786;2022-07-22T06:11:00;18.20;99.90
21039;DHT22;10678;51.002;4.786;2022-07-22T06:13:26;18.30;99.90
21039;DHT22;10678;51.002;4.786;2022-07-22T06:15:52;18.30;99.90
21039;DHT22;10678;51.002;4.786;2022-07-22T06:18:18;18.50;99.90
21039;DHT22;10678;51.002;4.786;2022-07-22T06:20:44;18.70;99.90
21039;DHT22;10678;51.002;4.786;2022-07-22T06:23:10;18.90;99.90
21039;DHT22;10678;51.002;4.786;2022-07-22T06:25:36;19.30;99.90
21039;DHT22;10678;51.002;4.786;2022-07-22T06:28:02;19.70;99.90
21039;DHT22;10678;51.002;4.786;2022-07-22T06:30:27;20.00;99.90
21039;DHT22;10678;51.002;4.786;2022-07-22T06:32:53;20.30;99.90
21039;DHT22;10678;51.002;4.786;2022-07-22T06:35:19;20.50;99.90
21039;DHT22;10678;51.002;4.786;2022-07-22T06:37:45;20.80;99.90
21039;DHT22;10678;51.002;4.786;2022-07-22T06:40:11;21.00;99.90
21039;DHT22;10678;51.002;4.786;2022-07-22T06:42:37;21.20;99.90
21039;DHT22;10678;51.002;4.786;2022-07-22T06:45:04;21.50;99.90
21039;DHT22;10678;51.002;4.786;2022-07-22T06:47:30;21.70;99.90
21039;DHT22;10678;51.002;4.786;2022-07-22T06:49:57;21.90;99.90
21039;DHT22;10678;51.002;4.786;2022-07-22T06:52:23;22.10;99.90
21039;DHT22;10678;51.002;4.786;2022-07-22T06:54:48;22.20;99.90
21039;DHT22;10678;51.002;4.786;2022-07-22T06:57:14;22.50;99.90
21039;DHT22;10678;51.002;4.786;2022-07-22T06:59:40;22.80;99.90
21039;DHT22;10678;51.002;4.786;2022-07-22T07:02:06;22.40;99.90
21039;DHT22;10678;51.002;4.786;2022-07-22T07:04:31;22.50;99.90
21039;DHT22;10678;51.002;4.786;2022-07-22T07:06:57;22.90;99.90
21039;DHT22;10678;51.002;4.786;2022-07-22T07:09:23;22.80;99.90
21039;DHT22;10678;51.002;4.786;2022-07-22T07:11:48;23.10;99.90
21039;DHT22;10678;51.002;4.786;2022-07-22T07:14:14;23.10;99.90
21039;DHT22;10678;51.002;4.786;2022-07-22T07:16:39;23.60;99.90
21039;DHT22;10678;51.002;4.786;2022-07-22T07:19:05;24.30;99.90
21039;DHT22;10678;51.002;4.786;2022-07-22T07:21:30;24.20;99.90
21039;DHT22;10678;51.002;4.786;2022-07-22T07:23:56;24.30;99.90
21039;DHT22;10678;51.002;4.786;2022-07-22T07:26:22;24.70;99.90
21039;DHT22;10678;51.002;4.786;2022-07-22T07:28:47;24.50;99.90
21039;DHT22;10678;51.002;4.786;2022-07-22T07:31:13;24.50;99.90
21039;DHT22;10678;51.002;4.786;2022-07-22T07:33:39;24.40;99.90
21039;DHT22;10678;51.002;4.786;2022-07-22T07:36:05;23.90;99.90
21039;DHT22;10678;51.002;4.786;2022-07-22T07:38:30;23.80;99.90
21039;DHT22;10678;51.002;4.786;2022-07-22T07:40:57;24.10;99.90
21039;DHT22;10678;51.002;4.786;2022-07-22T07:43:22;24.00;99.90
21039;DHT22;10678;51.002;4.786;2022-07-22T07:45:48;23.70;99.90
21039;DHT22;10678;51.002;4.786;2022-07-22T07:48:14;24.30;99.90
21039;DHT22;10678;51.002;4.786;2022-07-22T07:50:40;24.50;99.90
21039;DHT22;10678;51.002;4.786;2022-07-22T07:53:08;24.60;99.90
21039;DHT22;10678;51.002;4.786;2022-07-22T07:55:34;25.20;99.90
21039;DHT22;10678;51.002;4.786;2022-07-22T07:58:03;25.70;99.90
21039;DHT22;10678;51.002;4.786;2022-07-22T08:00:29;26.10;99.90
21039;DHT22;10678;51.002;4.786;2022-07-22T08:02:57;26.60;99.90
21039;DHT22;10678;51.002;4.786;2022-07-22T08:05:23;26.70;99.90
21039;DHT22;10678;51.002;4.786;2022-07-22T08:07:49;25.70;99.90
21039;DHT22;10678;51.002;4.786;2022-07-22T08:10:16;25.60;99.90
21039;DHT22;10678;51.002;4.786;2022-07-22T08:12:42;24.90;99.90
21039;DHT22;10678;51.002;4.786;2022-07-22T08:15:08;24.50;99.90
21039;DHT22;10678;51.002;4.786;2022-07-22T08:17:34;24.90;99.90
21039;DHT22;10678;51.002;4.786;2022-07-22T08:20:00;25.20;99.90
21039;DHT22;10678;51.002;4.786;2022-07-22T08:22:25;25.30;99.90
21039;DHT22;10678;51.002;4.786;2022-07-22T08:24:51;24.80;99.90
21039;DHT22;10678;51.002;4.786;2022-07-22T08:27:17;24.70;99.90
21039;DHT22;10678;51.002;4.786;2022-07-22T08:29:42;24.90;99.90
21039;DHT22;10678;51.002;4.786;2022-07-22T08:32:08;24.80;99.90
21039;DHT22;10678;51.002;4.786;2022-07-22T08:34:35;24.10;99.90
21039;DHT22;10678;51.002;4.786;2022-07-22T08:37:00;23.20;99.90
21039;DHT22;10678;51.002;4.786;2022-07-22T08:39:26;22.80;99.90
21039;DHT22;10678;51.002;4.786;2022-07-22T08:41:52;22.90;99.90
21039;DHT22;10678;51.002;4.786;2022-07-22T08:44:19;23.20;99.90
21039;DHT22;10678;51.002;4.786;2022-07-22T08:46:45;23.40;99.90
21039;DHT22;10678;51.002;4.786;2022-07-22T08:49:14;22.90;99.90
21039;DHT22;10678;51.002;4.786;2022-07-22T08:51:39;23.20;99.90
21039;DHT22;10678;51.002;4.786;2022-07-22T08:54:05;24.40;99.90
21039;DHT22;10678;51.002;4.786;2022-07-22T08:56:31;24.70;99.90
21039;DHT22;10678;51.002;4.786;2022-07-22T08:58:56;26.10;99.90
21039;DHT22;10678;51.002;4.786;2022-07-22T09:01:22;27.30;99.90
21039;DHT22;10678;51.002;4.786;2022-07-22T09:03:50;27.80;99.90
21039;DHT22;10678;51.002;4.786;2022-07-22T09:06:22;28.20;99.90
21039;DHT22;10678;51.002;4.786;2022-07-22T09:09:08;27.90;99.90
21039;DHT22;10678;51.002;4.786;2022-07-22T09:11:34;28.00;99.90
21039;DHT22;10678;51.002;4.786;2022-07-22T09:14:01;27.60;99.90
21039;DHT22;10678;51.002;4.786;2022-07-22T09:16:42;27.70;99.90
21039;DHT22;10678;51.002;4.786;2022-07-22T09:19:09;26.90;99.90
21039;DHT22;10678;51.002;4.786;2022-07-22T09:21:42;27.10;99.90
21039;DHT22;10678;51.002;4.786;2022-07-22T09:24:28;27.40;99.90
21039;DHT22;10678;51.002;4.786;2022-07-22T09:26:55;27.50;99.90
21039;DHT22;10678;51.002;4.786;2022-07-22T09:29:22;27.80;99.90
21039;DHT22;10678;51.002;4.786;2022-07-22T09:31:52;28.30;99.90
21039;DHT22;10678;51.002;4.786;2022-07-22T09:34:31;27.90;99.90
21039;DHT22;10678;51.002;4.786;2022-07-22T09:37:00;27.80;99.90
21039;DHT22;10678;51.002;4.786;2022-07-22T09:39:27;27.50;99.90
21039;DHT22;10678;51.002;4.786;2022-07-22T09:42:07;26.70;99.90
21039;DHT22;10678;51.002;4.786;2022-07-22T09:44:33;26.80;99.90
21039;DHT22;10678;51.002;4.786;2022-07-22T09:46:59;27.60;99.90
21039;DHT22;10678;51.002;4.786;2022-07-22T09:49:36;28.40;99.90
21039;DHT22;10678;51.002;4.786;2022-07-22T09:52:04;29.00;99.90
21039;DHT22;10678;51.002;4.786;2022-07-22T09:54:30;28.30;99.90
21039;DHT22;10678;51.002;4.786;2022-07-22T09:56:57;28.00;99.90
21039;DHT22;10678;51.002;4.786;2022-07-22T09:59:22;27.20;99.90
21039;DHT22;10678;51.002;4.786;2022-07-22T10:01:51;27.10;99.90
21039;DHT22;10678;51.002;4.786;2022-07-22T10:04:20;28.00;99.90
21039;DHT22;10678;51.002;4.786;2022-07-22T10:06:47;29.30;99.90
21039;DHT22;10678;51.002;4.786;2022-07-22T10:09:14;30.00;96.30
21039;DHT22;10678;51.002;4.786;2022-07-22T10:11:42;29.70;96.70
21039;DHT22;10678;51.002;4.786;2022-07-22T10:14:14;29.30;98.30
21039;DHT22;10678;51.002;4.786;2022-07-22T10:16:42;29.30;96.40
21039;DHT22;10678;51.002;4.786;2022-07-22T10:19:08;28.60;96.60
21039;DHT22;10678;51.002;4.786;2022-07-22T10:21:34;27.70;99.10
21039;DHT22;10678;51.002;4.786;2022-07-22T10:24:14;27.10;99.90
21039;DHT22;10678;51.002;4.786;2022-07-22T10:27:01;27.50;99.90
21039;DHT22;10678;51.002;4.786;2022-07-22T10:29:32;27.80;99.90
21039;DHT22;10678;51.002;4.786;2022-07-22T10:34:43;28.80;99.00
21039;DHT22;10678;51.002;4.786;2022-07-22T10:40:13;30.40;95.40
21039;DHT22;10678;51.002;4.786;2022-07-22T10:45:26;33.10;91.30
21039;DHT22;10678;51.002;4.786;2022-07-22T10:47:56;32.90;85.60
21039;DHT22;10678;51.002;4.786;2022-07-22T10:53:04;33.10;89.20
21039;DHT22;10678;51.002;4.786;2022-07-22T10:55:30;34.50;81.30
21039;DHT22;10678;51.002;4.786;2022-07-22T10:57:55;35.60;78.40
21039;DHT22;10678;51.002;4.786;2022-07-22T11:00:21;36.60;79.70
21039;DHT22;10678;51.002;4.786;2022-07-22T11:02:48;37.60;71.80
21039;DHT22;10678;51.002;4.786;2022-07-22T11:05:27;38.80;71.50
21039;DHT22;10678;51.002;4.786;2022-07-22T11:07:54;39.20;62.80
21039;DHT22;10678;51.002;4.786;2022-07-22T11:10:20;38.10;64.40
21039;DHT22;10678;51.002;4.786;2022-07-22T11:12:47;39.00;64.90
21039;DHT22;10678;51.002;4.786;2022-07-22T11:15:14;40.50;61.10
21039;DHT22;10678;51.002;4.786;2022-07-22T11:17:40;40.30;61.60
21039;DHT22;10678;51.002;4.786;2022-07-22T11:20:08;39.60;56.60
21039;DHT22;10678;51.002;4.786;2022-07-22T11:22:35;39.10;56.80
21039;DHT22;10678;51.002;4.786;2022-07-22T11:25:04;39.00;59.30
21039;DHT22;10678;51.002;4.786;2022-07-22T11:27:31;39.60;56.80
21039;DHT22;10678;51.002;4.786;2022-07-22T11:29:56;40.10;57.20
21039;DHT22;10678;51.002;4.786;2022-07-22T11:32:24;40.40;55.10
21039;DHT22;10678;51.002;4.786;2022-07-22T11:34:50;39.20;57.10
21039;DHT22;10678;51.002;4.786;2022-07-22T11:37:20;38.20;58.10
21039;DHT22;10678;51.002;4.786;2022-07-22T11:39:49;36.70;58.10
21039;DHT22;10678;51.002;4.786;2022-07-22T11:42:14;34.60;61.10
21039;DHT22;10678;51.002;4.786;2022-07-22T11:44:40;33.40;65.70
21039;DHT22;10678;51.002;4.786;2022-07-22T11:47:07;34.10;62.60
21039;DHT22;10678;51.002;4.786;2022-07-22T11:49:35;32.70;70.90
21039;DHT22;10678;51.002;4.786;2022-07-22T11:52:06;34.50;69.30
21039;DHT22;10678;51.002;4.786;2022-07-22T11:54:34;35.30;61.20
21039;DHT22;10678;51.002;4.786;2022-07-22T11:57:01;34.80;61.30
21039;DHT22;10678;51.002;4.786;2022-07-22T11:59:26;34.00;64.30
21039;DHT22;10678;51.002;4.786;2022-07-22T12:01:52;32.10;69.00
21039;DHT22;10678;51.002;4.786;2022-07-22T12:04:25;31.70;69.80
21039;DHT22;10678;51.002;4.786;2022-07-22T12:06:52;31.00;74.60
21039;DHT22;10678;51.002;4.786;2022-07-22T12:09:21;31.10;77.80
21039;DHT22;10678;51.002;4.786;2022-07-22T12:11:51;31.30;74.10
21039;DHT22;10678;51.002;4.786;2022-07-22T12:14:19;31.70;77.50
21039;DHT22;10678;51.002;4.786;2022-07-22T12:17:06;31.00;76.60
21039;DHT22;10678;51.002;4.786;2022-07-22T12:19:34;30.90;78.50
21039;DHT22;10678;51.002;4.786;2022-07-22T12:22:28;30.70;77.20
21039;DHT22;10678;51.002;4.786;2022-07-22T12:25:01;30.90;81.00
21039;DHT22;10678;51.002;4.786;2022-07-22T12:27:27;31.20;77.00
21039;DHT22;10678;51.002;4.786;2022-07-22T12:29:53;31.40;79.00
21039;DHT22;10678;51.002;4.786;2022-07-22T12:37:27;31.80;78.20
21039;DHT22;10678;51.002;4.786;2022-07-22T12:42:23;31.10;77.90
21039;DHT22;10678;51.002;4.786;2022-07-22T12:52:47;29.70;81.20
21039;DHT22;10678;51.002;4.786;2022-07-22T12:55:13;29.70;84.40
21039;DHT22;10678;51.002;4.786;2022-07-22T12:57:39;28.70;83.20
21039;DHT22;10678;51.002;4.786;2022-07-22T13:00:05;28.50;87.00
21039;DHT22;10678;51.002;4.786;2022-07-22T13:02:31;28.10;88.70
21039;DHT22;10678;51.002;4.786;2022-07-22T13:04:57;28.50;90.90
21039;DHT22;10678;51.002;4.786;2022-07-22T13:07:22;29.20;87.30
21039;DHT22;10678;51.002;4.786;2022-07-22T13:09:48;30.20;85.70
21039;DHT22;10678;51.002;4.786;2022-07-22T13:12:14;30.40;83.70
21039;DHT22;10678;51.002;4.786;2022-07-22T13:14:39;31.00;80.90
21039;DHT22;10678;51.002;4.786;2022-07-22T13:17:05;30.50;78.90
21039;DHT22;10678;51.002;4.786;2022-07-22T13:19:30;31.20;79.20
21039;DHT22;10678;51.002;4.786;2022-07-22T13:21:56;31.90;83.80
21039;DHT22;10678;51.002;4.786;2022-07-22T13:24:22;31.10;77.20
21039;DHT22;10678;51.002;4.786;2022-07-22T13:26:47;30.90;80.00
21039;DHT22;10678;51.002;4.786;2022-07-22T13:29:13;31.50;80.40
21039;DHT22;10678;51.002;4.786;2022-07-22T13:31:38;32.70;78.00
21039;DHT22;10678;51.002;4.786;2022-07-22T13:34:04;33.10;75.30
21039;DHT22;10678;51.002;4.786;2022-07-22T13:36:30;31.80;76.40
21039;DHT22;10678;51.002;4.786;2022-07-22T13:38:58;30.70;76.60
21039;DHT22;10678;51.002;4.786;2022-07-22T13:41:24;29.90;80.60
21039;DHT22;10678;51.002;4.786;2022-07-22T13:43:49;30.00;82.00
21039;DHT22;10678;51.002;4.786;2022-07-22T13:46:17;30.10;83.40
21039;DHT22;10678;51.002;4.786;2022-07-22T13:48:43;30.00;83.80
21039;DHT22;10678;51.002;4.786;2022-07-22T13:51:09;29.60;85.60
21039;DHT22;10678;51.002;4.786;2022-07-22T13:53:35;28.90;85.60
21039;DHT22;10678;51.002;4.786;2022-07-22T13:56:00;28.80;84.90
21039;DHT22;10678;51.002;4.786;2022-07-22T13:58:26;29.00;89.00
21039;DHT22;10678;51.002;4.786;2022-07-22T14:00:52;28.60;88.20
21039;DHT22;10678;51.002;4.786;2022-07-22T14:03:17;29.00;89.00
21039;DHT22;10678;51.002;4.786;2022-07-22T14:05:44;29.30;90.00
21039;DHT22;10678;51.002;4.786;2022-07-22T14:08:10;29.20;86.70
21039;DHT22;10678;51.002;4.786;2022-07-22T14:10:36;29.70;85.70
21039;DHT22;10678;51.002;4.786;2022-07-22T14:13:01;29.90;86.50
21039;DHT22;10678;51.002;4.786;2022-07-22T14:15:27;29.80;87.00
21039;DHT22;10678;51.002;4.786;2022-07-22T14:17:53;29.00;85.20
21039;DHT22;10678;51.002;4.786;2022-07-22T14:20:18;28.30;88.60
21039;DHT22;10678;51.002;4.786;2022-07-22T14:22:44;27.60;91.10
21039;DHT22;10678;51.002;4.786;2022-07-22T14:25:10;27.10;93.10
21039;DHT22;10678;51.002;4.786;2022-07-22T14:27:35;27.10;93.90
21039;DHT22;10678;51.002;4.786;2022-07-22T14:30:01;26.90;93.60
21039;DHT22;10678;51.002;4.786;2022-07-22T14:32:27;26.80;94.40
21039;DHT22;10678;51.002;4.786;2022-07-22T14:34:53;27.00;97.10
21039;DHT22;10678;51.002;4.786;2022-07-22T14:37:18;27.50;95.20
21039;DHT22;10678;51.002;4.786;2022-07-22T14:39:44;27.60;94.30
21039;DHT22;10678;51.002;4.786;2022-07-22T14:42:09;27.30;94.40
21039;DHT22;10678;51.002;4.786;2022-07-22T14:44:35;27.00;96.30
21039;DHT22;10678;51.002;4.786;2022-07-22T14:47:01;26.60;97.00
21039;DHT22;10678;51.002;4.786;2022-07-22T14:49:28;26.80;98.90
21039;DHT22;10678;51.002;4.786;2022-07-22T14:51:54;27.00;98.70
21039;DHT22;10678;51.002;4.786;2022-07-22T14:54:19;27.00;99.20
21039;DHT22;10678;51.002;4.786;2022-07-22T14:56:45;27.10;97.20
21039;DHT22;10678;51.002;4.786;2022-07-22T14:59:11;27.00;97.50
21039;DHT22;10678;51.002;4.786;2022-07-22T15:01:36;26.70;97.60
21039;DHT22;10678;51.002;4.786;2022-07-22T15:04:02;26.60;98.50
21039;DHT22;10678;51.002;4.786;2022-07-22T15:06:28;26.50;99.90
21039;DHT22;10678;51.002;4.786;2022-07-22T15:08:54;26.30;99.90
21039;DHT22;10678;51.002;4.786;2022-07-22T15:11:19;26.20;99.90
21039;DHT22;10678;51.002;4.786;2022-07-22T15:13:45;26.00;99.90
21039;DHT22;10678;51.002;4.786;2022-07-22T15:16:11;25.90;99.90
21039;DHT22;10678;51.002;4.786;2022-07-22T15:18:38;26.00;99.90
21039;DHT22;10678;51.002;4.786;2022-07-22T15:21:04;25.80;99.90
21039;DHT22;10678;51.002;4.786;2022-07-22T15:23:30;26.00;99.90
21039;DHT22;10678;51.002;4.786;2022-07-22T15:25:57;25.50;99.90
21039;DHT22;10678;51.002;4.786;2022-07-22T15:28:23;25.10;99.90
21039;DHT22;10678;51.002;4.786;2022-07-22T15:30:49;25.20;99.90
21039;DHT22;10678;51.002;4.786;2022-07-22T15:33:15;25.10;99.90
21039;DHT22;10678;51.002;4.786;2022-07-22T15:35:41;24.90;99.90
21039;DHT22;10678;51.002;4.786;2022-07-22T15:38:07;24.80;99.90
21039;DHT22;10678;51.002;4.786;2022-07-22T15:40:32;24.60;99.90
21039;DHT22;10678;51.002;4.786;2022-07-22T15:42:58;24.70;99.90
21039;DHT22;10678;51.002;4.786;2022-07-22T15:45:23;24.60;99.90
21039;DHT22;10678;51.002;4.786;2022-07-22T15:47:49;24.60;99.90
21039;DHT22;10678;51.002;4.786;2022-07-22T15:50:15;24.70;99.90
21039;DHT22;10678;51.002;4.786;2022-07-22T15:52:47;24.80;99.90